createdAt,value
2023-02-23T00:00:32.652Z,7.42
2023-02-23T00:02:06.356Z,7.42
2023-02-23T00:03:38.262Z,7.43
2023-02-23T00:05:10.121Z,7.41
2023-02-23T00:06:42.673Z,7.39
2023-02-23T00:08:14.815Z,7.35
2023-02-23T00:09:47.306Z,7.36
2023-02-23T00:11:20.658Z,7.37
2023-02-23T00:12:52.682Z,7.37
2023-02-23T00:14:27.399Z,7.36
2023-02-23T00:15:59.178Z,7.34
2023-02-23T00:17:31.707Z,7.32
2023-02-23T00:19:07.951Z,7.31
2023-02-23T00:20:44.622Z,7.31
2023-02-23T00:22:16.442Z,7.28
2023-02-23T00:24:02.811Z,7.35
2023-02-23T00:25:36.570Z,7.43
2023-02-23T00:27:09.603Z,7.32
2023-02-23T00:28:44.020Z,7.29
2023-02-23T00:30:18.731Z,7.26
2023-02-23T00:31:53.441Z,7.26
2023-02-23T00:33:25.433Z,7.25
2023-02-23T00:34:58.502Z,7.26
2023-02-23T00:36:34.829Z,7.24
2023-02-23T00:38:06.712Z,7.28
2023-02-23T00:39:38.663Z,7.27
2023-02-23T00:41:14.551Z,7.24
2023-02-23T00:42:47.762Z,7.23
2023-02-23T00:44:21.849Z,7.24
2023-02-23T00:45:56.711Z,7.22
2023-02-23T00:47:28.598Z,7.21
2023-02-23T00:49:01.208Z,7.19
2023-02-23T00:50:34.913Z,7.25
2023-02-23T00:52:06.750Z,7.27
2023-02-23T00:53:38.704Z,7.39
2023-02-23T00:55:15.211Z,7.20
2023-02-23T00:56:47.888Z,7.21
2023-02-23T00:58:20.975Z,7.11
2023-02-23T00:59:53.193Z,7.12
2023-02-23T01:01:25.459Z,7.22
2023-02-23T01:02:57.209Z,7.18
2023-02-23T01:04:29.080Z,7.24
2023-02-23T01:06:06.420Z,7.23
2023-02-23T01:07:39.066Z,7.16
2023-02-23T01:09:16.977Z,7.18
2023-02-23T01:10:54.623Z,7.20
2023-02-23T01:12:26.360Z,7.26
2023-02-23T01:14:01.135Z,7.18
2023-02-23T01:15:33.219Z,7.10
2023-02-23T01:17:05.531Z,7.04
2023-02-23T01:18:39.358Z,7.01
2023-02-23T01:20:19.719Z,7.04
2023-02-23T01:21:51.955Z,7.06
2023-02-23T01:23:23.740Z,7.07
2023-02-23T01:24:55.486Z,7.06
2023-02-23T01:26:36.306Z,7.07
2023-02-23T01:28:09.042Z,7.21
2023-02-23T01:29:42.670Z,7.14
2023-02-23T01:31:15.861Z,7.07
2023-02-23T01:32:48.129Z,7.02
2023-02-23T01:34:24.181Z,7.10
2023-02-23T01:36:01.570Z,7.09
2023-02-23T01:37:41.956Z,7.05
2023-02-23T01:39:17.567Z,6.98
2023-02-23T01:40:49.336Z,7.09
2023-02-23T01:42:22.925Z,7.11
2023-02-23T01:44:07.966Z,7.09
2023-02-23T01:45:43.589Z,7.06
2023-02-23T01:47:17.218Z,7.06
2023-02-23T01:48:49.907Z,7.06
2023-02-23T01:50:25.071Z,6.98
2023-02-23T01:52:01.652Z,7.02
2023-02-23T01:53:39.598Z,7.04
2023-02-23T01:55:13.540Z,7.17
2023-02-23T01:56:58.634Z,7.05
2023-02-23T01:58:33.228Z,7.00
2023-02-23T02:00:14.071Z,6.93
2023-02-23T02:01:45.906Z,6.90
2023-02-23T02:03:28.429Z,6.96
2023-02-23T02:05:03.269Z,6.96
2023-02-23T02:06:38.019Z,6.99
2023-02-23T02:08:10.733Z,6.96
2023-02-23T02:10:04.180Z,7.03
2023-02-23T02:11:38.700Z,7.02
2023-02-23T02:13:14.954Z,7.03
2023-02-23T02:14:46.714Z,7.06
2023-02-23T02:16:52.875Z,6.99
2023-02-23T02:18:48.069Z,7.07
2023-02-23T02:20:42.915Z,7.04
2023-02-23T02:22:41.824Z,7.02
2023-02-23T02:24:34.763Z,7.07
2023-02-23T02:26:43.849Z,7.09
2023-02-23T02:28:54.783Z,7.09
2023-02-23T02:30:26.577Z,7.08
2023-02-23T02:32:29.205Z,7.03
2023-02-23T02:34:18.770Z,7.01
2023-02-23T02:36:17.775Z,7.01
2023-02-23T02:37:57.014Z,7.05
2023-02-23T02:39:38.055Z,7.04
2023-02-23T02:41:15.688Z,7.02
2023-02-23T02:42:59.461Z,7.03
2023-02-23T02:44:44.496Z,7.02
2023-02-23T02:46:41.606Z,6.99
2023-02-23T02:48:31.340Z,7.03
2023-02-23T02:50:11.608Z,6.94
2023-02-23T02:51:56.522Z,6.95
2023-02-23T02:53:41.005Z,6.97
2023-02-23T02:55:17.686Z,6.92
2023-02-23T02:56:51.917Z,6.92
2023-02-23T02:58:25.647Z,6.92
2023-02-23T03:00:17.326Z,6.97
2023-02-23T03:02:07.564Z,6.94
2023-02-23T03:04:01.928Z,6.89
2023-02-23T03:06:08.593Z,6.92
2023-02-23T03:08:27.872Z,7.13
2023-02-23T03:10:33.074Z,7.05
2023-02-23T03:12:35.326Z,6.91
2023-02-23T03:15:08.734Z,6.87
2023-02-23T03:17:24.830Z,6.86
2023-02-23T03:19:23.788Z,6.87
2023-02-23T03:21:24.144Z,6.90
2023-02-23T03:23:21.172Z,6.87
2023-02-23T03:25:37.651Z,6.87
2023-02-23T03:27:58.127Z,6.98
2023-02-23T03:30:03.706Z,7.08
2023-02-23T03:32:10.740Z,7.04
2023-02-23T03:34:13.998Z,7.04
2023-02-23T03:36:08.941Z,7.00
2023-02-23T03:38:06.035Z,6.97
2023-02-23T03:40:02.028Z,7.00
2023-02-23T03:41:54.567Z,6.94
2023-02-23T03:43:51.286Z,6.97
2023-02-23T03:45:45.239Z,6.95
2023-02-23T03:47:38.620Z,7.01
2023-02-23T03:49:31.625Z,6.97
2023-02-23T03:51:26.266Z,6.93
2023-02-23T03:53:19.892Z,7.04
2023-02-23T03:55:16.388Z,6.95
2023-02-23T03:57:10.651Z,6.95
2023-02-23T03:59:09.244Z,7.10
2023-02-23T04:01:06.632Z,7.01
2023-02-23T04:02:59.521Z,7.06
2023-02-23T04:04:51.751Z,7.04
2023-02-23T04:06:46.536Z,6.97
2023-02-23T04:08:40.282Z,6.92
2023-02-23T04:10:30.861Z,6.87
2023-02-23T04:12:33.384Z,6.86
2023-02-23T04:14:12.526Z,6.90
2023-02-23T04:15:47.637Z,6.93
2023-02-23T04:17:21.399Z,6.93
2023-02-23T04:18:53.586Z,6.94
2023-02-23T04:20:25.926Z,6.92
2023-02-23T04:21:57.794Z,6.92
2023-02-23T04:23:30.397Z,6.99
2023-02-23T04:25:02.304Z,7.17
2023-02-23T04:26:34.297Z,7.30
2023-02-23T04:28:06.093Z,7.15
2023-02-23T04:29:38.097Z,7.07
2023-02-23T04:31:09.966Z,7.07
2023-02-23T04:32:41.940Z,7.02
2023-02-23T04:34:14.422Z,7.07
2023-02-23T04:35:46.199Z,7.00
2023-02-23T04:37:18.004Z,6.97
2023-02-23T04:38:49.753Z,6.95
2023-02-23T04:40:24.190Z,6.95
2023-02-23T04:41:56.203Z,6.92
2023-02-23T04:43:28.006Z,6.92
2023-02-23T04:44:59.796Z,6.93
2023-02-23T04:46:31.717Z,6.93
2023-02-23T04:48:03.705Z,6.94
2023-02-23T04:49:35.482Z,7.06
2023-02-23T04:51:07.262Z,7.07
2023-02-23T04:52:39.760Z,7.01
2023-02-23T04:54:11.545Z,6.99
2023-02-23T04:55:43.360Z,7.01
2023-02-23T04:57:15.269Z,7.00
2023-02-23T04:58:47.075Z,7.07
2023-02-23T05:00:19.215Z,7.06
2023-02-23T05:01:51.051Z,7.05
2023-02-23T05:03:22.991Z,7.08
2023-02-23T05:04:54.664Z,7.08
2023-02-23T05:06:26.700Z,7.01
2023-02-23T05:07:58.494Z,7.02
2023-02-23T05:09:31.345Z,7.00
2023-02-23T05:11:03.117Z,7.01
2023-02-23T05:12:34.883Z,7.09
2023-02-23T05:14:06.926Z,7.04
2023-02-23T05:15:39.532Z,7.01
2023-02-23T05:17:11.423Z,6.96
2023-02-23T05:18:43.287Z,7.01
2023-02-23T05:20:16.112Z,7.01
2023-02-23T05:21:48.026Z,6.98
2023-02-23T05:23:21.997Z,7.02
2023-02-23T05:24:55.836Z,7.02
2023-02-23T05:26:29.118Z,6.96
2023-02-23T05:28:00.953Z,6.95
2023-02-23T05:29:32.756Z,6.93
2023-02-23T05:31:05.526Z,6.94
2023-02-23T05:32:37.293Z,6.93
2023-02-23T05:34:09.908Z,7.02
2023-02-23T05:35:41.856Z,7.00
2023-02-23T05:37:13.945Z,7.02
2023-02-23T05:38:46.714Z,6.98
2023-02-23T05:40:19.023Z,6.95
2023-02-23T05:41:50.963Z,6.96
2023-02-23T05:43:22.633Z,6.92
2023-02-23T05:44:54.735Z,6.88
2023-02-23T05:46:27.942Z,6.89
2023-02-23T05:48:00.125Z,6.96
2023-02-23T05:49:31.843Z,6.90
2023-02-23T05:51:09.561Z,6.90
2023-02-23T05:52:42.295Z,6.90
2023-02-23T05:54:14.176Z,6.92
2023-02-23T05:55:45.880Z,6.90
2023-02-23T05:57:17.615Z,6.87
2023-02-23T05:58:54.470Z,6.84
2023-02-23T06:00:26.153Z,6.82
2023-02-23T06:01:57.920Z,6.81
2023-02-23T06:03:29.703Z,6.81
2023-02-23T06:05:01.468Z,6.80
2023-02-23T06:06:33.270Z,6.78
2023-02-23T06:08:05.493Z,6.77
2023-02-23T06:09:37.207Z,6.81
2023-02-23T06:11:09.775Z,6.79
2023-02-23T06:12:41.552Z,6.77
2023-02-23T06:14:13.475Z,6.78
2023-02-23T06:15:45.410Z,6.78
2023-02-23T06:17:17.442Z,6.79
2023-02-23T06:18:49.171Z,6.79
2023-02-23T06:20:20.851Z,6.80
2023-02-23T06:21:55.328Z,6.82
2023-02-23T06:23:31.046Z,6.81
2023-02-23T06:25:05.053Z,6.81
2023-02-23T06:26:37.058Z,6.78
2023-02-23T06:28:09.239Z,6.77
2023-02-23T06:29:41.663Z,6.76
2023-02-23T06:31:13.380Z,6.78
2023-02-23T06:32:45.120Z,6.77
2023-02-23T06:34:20.329Z,6.73
2023-02-23T06:35:52.974Z,6.75
2023-02-23T06:37:24.699Z,6.73
2023-02-23T06:38:58.203Z,6.74
2023-02-23T06:40:30.716Z,6.74
2023-02-23T06:42:02.402Z,6.74
2023-02-23T06:43:34.132Z,6.74
2023-02-23T06:45:06.430Z,6.78
2023-02-23T06:46:38.308Z,6.75
2023-02-23T06:48:10.590Z,6.77
2023-02-23T06:49:42.594Z,6.80
2023-02-23T06:51:14.381Z,6.80
2023-02-23T06:52:46.164Z,6.81
2023-02-23T06:54:17.957Z,6.83
2023-02-23T06:55:49.646Z,6.85
2023-02-23T06:57:21.798Z,6.87
2023-02-23T06:58:53.562Z,6.89
2023-02-23T07:00:25.328Z,6.88
2023-02-23T07:01:57.217Z,6.89
2023-02-23T07:03:29.034Z,7.02
2023-02-23T07:05:00.756Z,7.02
2023-02-23T07:06:32.537Z,7.03
2023-02-23T07:08:04.737Z,7.07
2023-02-23T07:09:36.452Z,7.07
2023-02-23T07:11:18.824Z,7.06
2023-02-23T07:12:50.679Z,7.14
2023-02-23T07:14:26.866Z,7.15
2023-02-23T07:15:59.187Z,7.21
2023-02-23T07:17:30.974Z,7.23
2023-02-23T07:19:03.917Z,7.27
2023-02-23T07:20:35.759Z,7.28
2023-02-23T07:22:07.478Z,7.33
2023-02-23T07:23:39.245Z,7.38
2023-02-23T07:25:11.199Z,7.37
2023-02-23T07:26:45.874Z,7.41
2023-02-23T07:28:17.690Z,7.49
2023-02-23T07:29:49.622Z,7.60
2023-02-23T07:31:21.727Z,7.74
2023-02-23T07:32:54.292Z,7.76
2023-02-23T07:34:26.505Z,7.68
2023-02-23T07:35:58.696Z,7.67
2023-02-23T07:37:30.529Z,7.64
2023-02-23T07:39:03.127Z,7.69
2023-02-23T07:40:35.067Z,7.62
2023-02-23T07:42:06.890Z,7.66
2023-02-23T07:43:38.696Z,7.72
2023-02-23T07:45:10.984Z,7.74
2023-02-23T07:46:42.726Z,7.73
2023-02-23T07:48:15.183Z,7.75
2023-02-23T07:49:46.916Z,7.80
2023-02-23T07:51:19.291Z,7.88
2023-02-23T07:52:51.584Z,7.99
2023-02-23T07:54:25.574Z,8.07
2023-02-23T07:55:58.630Z,8.26
2023-02-23T07:57:30.330Z,8.37
2023-02-23T07:59:02.140Z,8.42
2023-02-23T08:00:34.991Z,8.48
2023-02-23T08:02:07.172Z,8.36
2023-02-23T08:03:39.380Z,8.42
2023-02-23T08:05:11.601Z,8.42
2023-02-23T08:06:43.412Z,8.31
2023-02-23T08:08:15.238Z,8.23
2023-02-23T08:09:48.656Z,8.20
2023-02-23T08:11:20.798Z,8.21
2023-02-23T08:12:52.839Z,8.17
2023-02-23T08:14:24.729Z,8.20
2023-02-23T08:15:57.008Z,8.18
2023-02-23T08:17:28.938Z,8.24
2023-02-23T08:19:01.425Z,8.24
2023-02-23T08:20:33.685Z,8.37
2023-02-23T08:22:07.732Z,8.41
2023-02-23T08:23:40.756Z,8.36
2023-02-23T08:25:12.506Z,8.42
2023-02-23T08:26:44.336Z,8.53
2023-02-23T08:28:16.339Z,8.60
2023-02-23T08:29:48.157Z,8.63
2023-02-23T08:31:22.866Z,8.70
2023-02-23T08:32:54.936Z,8.79
2023-02-23T08:34:26.724Z,8.87
2023-02-23T08:35:59.625Z,8.81
2023-02-23T08:37:31.675Z,8.81
2023-02-23T08:39:06.441Z,8.90
2023-02-23T08:40:38.152Z,8.97
2023-02-23T08:42:09.796Z,9.01
2023-02-23T08:43:41.510Z,9.11
2023-02-23T08:45:13.479Z,9.09
2023-02-23T08:46:45.930Z,9.12
2023-02-23T08:48:17.702Z,9.07
2023-02-23T08:49:50.820Z,9.02
2023-02-23T08:51:22.730Z,9.11
2023-02-23T08:52:54.617Z,9.12
2023-02-23T08:54:27.138Z,9.17
2023-02-23T08:56:00.820Z,9.26
2023-02-23T08:57:34.068Z,9.30
2023-02-23T08:59:05.829Z,9.42
2023-02-23T09:00:38.670Z,9.56
2023-02-23T09:02:13.569Z,9.63
2023-02-23T09:03:45.855Z,9.61
2023-02-23T09:05:17.905Z,9.69
2023-02-23T09:06:50.250Z,9.82
2023-02-23T09:08:22.169Z,9.89
2023-02-23T09:09:57.743Z,9.84
2023-02-23T09:11:29.549Z,9.82
2023-02-23T09:13:01.349Z,9.94
2023-02-23T09:14:33.294Z,10.07
2023-02-23T09:16:06.524Z,10.32
2023-02-23T09:17:38.882Z,10.51
2023-02-23T09:19:10.980Z,10.90
2023-02-23T09:20:44.027Z,11.46
2023-02-23T09:22:15.957Z,11.60
2023-02-23T09:23:49.858Z,11.71
2023-02-23T09:25:25.473Z,11.81
2023-02-23T09:26:57.890Z,12.09
2023-02-23T09:28:31.139Z,12.06
2023-02-23T09:30:03.196Z,12.61
2023-02-23T09:31:35.460Z,13.56
2023-02-23T09:33:07.846Z,13.69
2023-02-23T09:34:39.719Z,16.22
2023-02-23T09:36:23.799Z,17.65
2023-02-23T09:37:56.345Z,17.61
2023-02-23T09:39:37.691Z,17.27
2023-02-23T09:41:39.542Z,19.13
2023-02-23T09:43:41.068Z,20.73
2023-02-23T09:45:31.465Z,20.58
2023-02-23T09:47:03.256Z,20.04
2023-02-23T09:48:35.499Z,21.55
2023-02-23T09:50:20.638Z,21.32
2023-02-23T09:51:57.790Z,20.40
2023-02-23T09:53:48.394Z,19.75
2023-02-23T09:55:20.748Z,20.93
2023-02-23T09:56:53.263Z,21.31
2023-02-23T09:58:33.820Z,21.28
2023-02-23T10:00:18.556Z,22.31
2023-02-23T10:02:16.104Z,22.29
2023-02-23T10:03:59.858Z,21.59
2023-02-23T10:05:37.586Z,21.52
2023-02-23T10:07:21.316Z,21.20
2023-02-23T10:09:09.184Z,22.91
2023-02-23T10:11:16.974Z,24.58
2023-02-23T10:12:54.933Z,27.37
2023-02-23T10:14:49.182Z,27.00
2023-02-23T10:16:54.004Z,25.73
2023-02-23T10:18:56.492Z,24.31
2023-02-23T10:20:28.614Z,25.43
2023-02-23T10:22:07.789Z,27.85
2023-02-23T10:23:45.437Z,27.75
2023-02-23T10:25:25.580Z,29.81
2023-02-23T10:27:23.814Z,30.40
2023-02-23T10:28:58.590Z,31.01
2023-02-23T10:30:34.875Z,31.62
2023-02-23T10:32:14.061Z,31.12
2023-02-23T10:33:47.531Z,29.47
2023-02-23T10:35:21.860Z,29.39
2023-02-23T10:36:59.976Z,30.04
2023-02-23T10:38:32.025Z,29.73
2023-02-23T10:40:06.127Z,30.45
2023-02-23T10:41:38.993Z,29.92
2023-02-23T10:43:13.273Z,28.66
2023-02-23T10:44:46.004Z,31.03
2023-02-23T10:46:23.424Z,27.68
2023-02-23T10:48:02.022Z,26.59
2023-02-23T10:49:49.465Z,31.01
2023-02-23T10:51:27.018Z,30.28
2023-02-23T10:53:04.830Z,31.48
2023-02-23T10:54:47.945Z,27.96
2023-02-23T10:56:22.492Z,23.42
2023-02-23T10:58:18.333Z,20.69
2023-02-23T11:00:00.151Z,19.68
2023-02-23T11:01:41.901Z,19.95
2023-02-23T11:03:38.049Z,20.20
2023-02-23T11:05:30.416Z,19.25
2023-02-23T11:07:10.042Z,19.99
2023-02-23T11:08:41.800Z,19.70
2023-02-23T11:10:28.251Z,19.12
2023-02-23T11:12:39.632Z,18.98
2023-02-23T11:14:16.940Z,19.49
2023-02-23T11:15:50.925Z,19.64
2023-02-23T11:17:38.242Z,19.46
2023-02-23T11:19:23.373Z,18.87
2023-02-23T11:20:56.196Z,18.14
2023-02-23T11:22:31.834Z,18.69
2023-02-23T11:24:19.229Z,18.02
2023-02-23T11:25:56.306Z,17.87
2023-02-23T11:27:28.309Z,17.53
2023-02-23T11:29:11.080Z,16.37
2023-02-23T11:30:43.029Z,16.58
2023-02-23T11:32:21.884Z,16.61
2023-02-23T11:33:55.889Z,16.24
2023-02-23T11:35:31.088Z,16.13
2023-02-23T11:37:20.371Z,16.13
2023-02-23T11:39:27.522Z,15.93
2023-02-23T11:41:00.601Z,15.83
2023-02-23T11:42:33.681Z,16.09
2023-02-23T11:44:06.371Z,16.13
2023-02-23T11:45:44.763Z,16.01
2023-02-23T11:47:19.152Z,16.11
2023-02-23T11:48:56.696Z,16.23
2023-02-23T11:50:32.906Z,15.35
2023-02-23T11:52:15.697Z,15.51
2023-02-23T11:53:47.353Z,15.75
2023-02-23T11:55:20.287Z,15.44
2023-02-23T11:56:55.034Z,15.20
2023-02-23T11:58:44.622Z,15.58
2023-02-23T12:00:25.180Z,15.71
2023-02-23T12:02:05.481Z,15.13
2023-02-23T12:03:37.114Z,15.52
2023-02-23T12:05:09.043Z,14.84
2023-02-23T12:06:42.102Z,15.02
2023-02-23T12:08:27.521Z,14.54
2023-02-23T12:10:37.849Z,14.47
2023-02-23T12:12:14.136Z,14.99
2023-02-23T12:13:51.304Z,15.16
2023-02-23T12:15:34.739Z,15.15
2023-02-23T12:17:18.653Z,15.12
2023-02-23T12:19:01.297Z,15.13
2023-02-23T12:20:40.605Z,14.96
2023-02-23T12:22:35.456Z,15.13
2023-02-23T12:24:25.432Z,14.80
2023-02-23T12:26:17.930Z,14.96
2023-02-23T12:28:41.119Z,14.84
2023-02-23T12:30:23.148Z,14.75
2023-02-23T12:32:02.963Z,14.73
2023-02-23T12:33:40.381Z,14.81
2023-02-23T12:35:30.741Z,14.92
2023-02-23T12:37:20.595Z,14.92
2023-02-23T12:39:04.616Z,14.78
2023-02-23T12:40:39.042Z,14.90
2023-02-23T12:42:16.853Z,14.91
2023-02-23T12:43:54.092Z,14.63
2023-02-23T12:45:52.690Z,14.36
2023-02-23T12:47:40.605Z,14.32
2023-02-23T12:49:35.583Z,14.33
2023-02-23T12:51:19.199Z,14.43
2023-02-23T12:53:08.219Z,14.33
2023-02-23T12:54:40.139Z,14.26
2023-02-23T12:56:14.712Z,14.33
2023-02-23T12:57:46.359Z,14.22
2023-02-23T12:59:43.082Z,14.23
2023-02-23T13:01:22.761Z,14.53
2023-02-23T13:03:33.191Z,14.30
2023-02-23T13:05:27.134Z,14.20
2023-02-23T13:07:14.768Z,14.25
2023-02-23T13:08:57.210Z,14.41
2023-02-23T13:10:41.172Z,14.47
2023-02-23T13:12:25.449Z,14.50
2023-02-23T13:14:11.196Z,14.46
2023-02-23T13:16:19.920Z,14.39
2023-02-23T13:18:01.651Z,14.27
2023-02-23T13:19:47.801Z,14.12
2023-02-23T13:21:41.742Z,14.04
2023-02-23T13:23:34.889Z,14.00
2023-02-23T13:25:38.650Z,14.04
2023-02-23T13:27:18.728Z,14.23
2023-02-23T13:29:11.886Z,14.07
2023-02-23T13:30:47.465Z,14.17
2023-02-23T13:32:20.976Z,14.12
2023-02-23T13:33:56.362Z,14.04
2023-02-23T13:35:35.365Z,14.00
2023-02-23T13:37:09.589Z,13.91
2023-02-23T13:38:44.221Z,13.79
2023-02-23T13:40:29.407Z,13.77
2023-02-23T13:42:19.053Z,13.62
2023-02-23T13:44:10.547Z,13.78
2023-02-23T13:45:49.071Z,13.65
2023-02-23T13:47:39.299Z,13.57
2023-02-23T13:49:39.194Z,13.83
2023-02-23T13:51:35.756Z,13.83
2023-02-23T13:53:37.238Z,13.84
2023-02-23T13:55:48.191Z,14.01
2023-02-23T13:57:22.684Z,14.06
2023-02-23T13:58:59.032Z,13.75
2023-02-23T14:00:32.594Z,14.00
2023-02-23T14:02:23.851Z,14.00
2023-02-23T14:04:05.102Z,14.02
2023-02-23T14:05:44.365Z,14.03
2023-02-23T14:07:31.391Z,14.16
2023-02-23T14:09:13.294Z,13.91
2023-02-23T14:10:45.451Z,13.83
2023-02-23T14:12:25.239Z,13.80
2023-02-23T14:14:02.714Z,13.92
2023-02-23T14:15:40.398Z,13.82
2023-02-23T14:17:15.520Z,13.76
2023-02-23T14:18:56.189Z,13.96
2023-02-23T14:20:40.287Z,13.88
2023-02-23T14:22:22.087Z,13.95
2023-02-23T14:24:23.253Z,13.97
2023-02-23T14:26:15.836Z,13.90
2023-02-23T14:28:00.710Z,13.65
2023-02-23T14:29:43.857Z,13.74
2023-02-23T14:31:20.574Z,13.62
2023-02-23T14:32:54.013Z,13.45
2023-02-23T14:34:45.563Z,13.39
2023-02-23T14:36:26.491Z,13.52
2023-02-23T14:38:05.343Z,13.53
2023-02-23T14:39:37.438Z,13.55
2023-02-23T14:41:11.956Z,13.70
2023-02-23T14:42:51.274Z,13.59
2023-02-23T14:44:36.497Z,13.45
2023-02-23T14:46:17.031Z,13.59
2023-02-23T14:47:51.362Z,13.57
2023-02-23T14:49:27.872Z,13.54
2023-02-23T14:51:20.215Z,13.59
2023-02-23T14:52:54.433Z,13.65
2023-02-23T14:54:40.400Z,13.74
2023-02-23T14:56:32.566Z,13.78
2023-02-23T14:58:36.481Z,13.78
2023-02-23T15:00:15.159Z,13.78
2023-02-23T15:01:47.412Z,13.76
2023-02-23T15:03:19.192Z,13.48
2023-02-23T15:04:51.802Z,13.60
2023-02-23T15:06:23.680Z,13.63
2023-02-23T15:08:00.239Z,13.58
2023-02-23T15:09:39.673Z,13.65
2023-02-23T15:11:14.116Z,13.55
2023-02-23T15:12:46.885Z,13.59
2023-02-23T15:14:27.487Z,13.60
2023-02-23T15:16:35.094Z,13.57
2023-02-23T15:18:06.900Z,13.50
2023-02-23T15:19:39.474Z,13.45
2023-02-23T15:21:13.986Z,13.44
2023-02-23T15:22:51.748Z,13.45
2023-02-23T15:24:27.872Z,13.50
2023-02-23T15:25:59.571Z,13.36
2023-02-23T15:27:43.112Z,13.28
2023-02-23T15:29:17.858Z,13.33
2023-02-23T15:30:50.893Z,13.22
2023-02-23T15:32:25.409Z,13.18
2023-02-23T15:33:57.834Z,13.17
2023-02-23T15:35:31.309Z,13.07
2023-02-23T15:37:07.511Z,13.13
2023-02-23T15:38:51.936Z,13.03
2023-02-23T15:40:26.656Z,12.99
2023-02-23T15:41:58.375Z,13.03
2023-02-23T15:43:33.037Z,13.03
2023-02-23T15:45:16.814Z,12.97
2023-02-23T15:46:57.833Z,12.78
2023-02-23T15:48:48.670Z,12.81
2023-02-23T15:50:37.024Z,12.71
2023-02-23T15:52:17.958Z,12.75
2023-02-23T15:53:49.979Z,12.70
2023-02-23T15:55:26.458Z,12.61
2023-02-23T15:57:04.024Z,12.57
2023-02-23T15:58:47.759Z,12.48
2023-02-23T16:00:32.705Z,12.51
2023-02-23T16:02:16.744Z,12.52
2023-02-23T16:04:07.407Z,12.45
2023-02-23T16:05:53.980Z,12.41
2023-02-23T16:07:35.697Z,12.40
2023-02-23T16:09:21.064Z,12.45
2023-02-23T16:11:04.637Z,12.52
2023-02-23T16:12:39.032Z,12.56
2023-02-23T16:14:16.838Z,12.41
2023-02-23T16:15:50.058Z,12.32
2023-02-23T16:17:27.318Z,12.20
2023-02-23T16:19:01.852Z,12.17
2023-02-23T16:20:34.844Z,12.17
2023-02-23T16:22:17.441Z,12.07
2023-02-23T16:23:53.127Z,12.02
2023-02-23T16:25:27.048Z,12.01
2023-02-23T16:27:00.929Z,11.94
2023-02-23T16:28:34.534Z,11.95
2023-02-23T16:30:31.790Z,11.96
2023-02-23T16:32:16.989Z,11.96
2023-02-23T16:33:57.400Z,11.91
2023-02-23T16:35:45.413Z,11.93
2023-02-23T16:37:25.303Z,11.93
2023-02-23T16:39:02.526Z,11.82
2023-02-23T16:40:34.135Z,11.76
2023-02-23T16:42:05.788Z,11.77
2023-02-23T16:43:37.666Z,11.74
2023-02-23T16:45:15.449Z,11.69
2023-02-23T16:47:01.929Z,11.59
2023-02-23T16:48:33.650Z,11.59
2023-02-23T16:50:22.488Z,11.54
2023-02-23T16:51:54.313Z,11.56
2023-02-23T16:53:26.357Z,11.54
2023-02-23T16:54:58.021Z,11.51
2023-02-23T16:56:30.655Z,11.46
2023-02-23T16:58:04.229Z,11.38
2023-02-23T16:59:36.116Z,11.37
2023-02-23T17:01:07.871Z,11.33
2023-02-23T17:02:39.750Z,11.35
2023-02-23T17:04:16.214Z,11.38
2023-02-23T17:05:48.802Z,11.34
2023-02-23T17:07:23.169Z,11.30
2023-02-23T17:08:58.928Z,11.20
2023-02-23T17:10:33.636Z,11.13
2023-02-23T17:12:05.717Z,11.06
2023-02-23T17:13:37.710Z,11.01
2023-02-23T17:15:17.821Z,10.99
2023-02-23T17:16:51.489Z,10.97
2023-02-23T17:18:26.205Z,10.99
2023-02-23T17:19:58.253Z,10.97
2023-02-23T17:21:31.832Z,10.85
2023-02-23T17:23:04.098Z,10.78
2023-02-23T17:24:36.068Z,10.79
2023-02-23T17:26:09.897Z,10.84
2023-02-23T17:27:41.848Z,10.78
2023-02-23T17:29:13.670Z,10.86
2023-02-23T17:30:46.560Z,10.82
2023-02-23T17:32:18.514Z,10.83
2023-02-23T17:33:50.653Z,10.82
2023-02-23T17:35:22.730Z,10.76
2023-02-23T17:36:55.052Z,10.86
2023-02-23T17:38:33.903Z,10.84
2023-02-23T17:40:08.557Z,10.83
2023-02-23T17:41:40.574Z,10.78
2023-02-23T17:43:12.240Z,10.78
2023-02-23T17:44:44.138Z,10.76
2023-02-23T17:46:15.734Z,10.78
2023-02-23T17:47:47.446Z,10.77
2023-02-23T17:49:19.078Z,10.90
2023-02-23T17:51:02.659Z,10.79
2023-02-23T17:52:34.359Z,10.80
2023-02-23T17:54:06.349Z,10.77
2023-02-23T17:55:38.048Z,10.75
2023-02-23T17:57:09.832Z,10.77
2023-02-23T17:58:41.780Z,10.69
2023-02-23T18:00:15.218Z,10.55
2023-02-23T18:01:49.324Z,10.57
2023-02-23T18:03:21.125Z,10.50
2023-02-23T18:04:53.197Z,10.42
2023-02-23T18:06:24.999Z,10.37
2023-02-23T18:07:56.760Z,10.28
2023-02-23T18:09:28.470Z,10.32
2023-02-23T18:11:01.000Z,10.30
2023-02-23T18:12:33.353Z,10.31
2023-02-23T18:14:04.983Z,10.31
2023-02-23T18:15:36.698Z,10.27
2023-02-23T18:17:08.549Z,10.30
2023-02-23T18:18:44.356Z,10.32
2023-02-23T18:20:17.159Z,10.28
2023-02-23T18:21:48.897Z,10.23
2023-02-23T18:23:21.321Z,10.22
2023-02-23T18:24:52.965Z,10.21
2023-02-23T18:26:24.797Z,10.17
2023-02-23T18:27:56.651Z,10.18
2023-02-23T18:29:30.448Z,10.10
2023-02-23T18:31:02.396Z,10.07
2023-02-23T18:32:34.179Z,10.08
2023-02-23T18:34:06.617Z,10.09
2023-02-23T18:35:41.766Z,10.04
2023-02-23T18:37:13.356Z,10.08
2023-02-23T18:38:45.227Z,9.98
2023-02-23T18:40:21.496Z,10.00
2023-02-23T18:41:53.339Z,9.94
2023-02-23T18:43:25.045Z,9.98
2023-02-23T18:44:56.745Z,9.91
2023-02-23T18:46:28.888Z,9.97
2023-02-23T18:48:00.836Z,10.05
2023-02-23T18:49:32.641Z,9.93
2023-02-23T18:51:06.938Z,10.01
2023-02-23T18:52:40.775Z,9.92
2023-02-23T18:54:16.752Z,9.97
2023-02-23T18:55:48.295Z,9.99
2023-02-23T18:57:19.918Z,9.98
2023-02-23T18:59:01.711Z,9.98
2023-02-23T19:00:40.146Z,9.86
2023-02-23T19:02:11.969Z,9.78
2023-02-23T19:03:45.235Z,9.71
2023-02-23T19:05:19.538Z,9.74
2023-02-23T19:06:52.419Z,9.66
2023-02-23T19:08:24.148Z,9.72
2023-02-23T19:09:56.135Z,9.64
2023-02-23T19:11:33.491Z,9.55
2023-02-23T19:13:08.825Z,9.47
2023-02-23T19:14:49.207Z,9.47
2023-02-23T19:16:22.518Z,9.50
2023-02-23T19:17:54.418Z,9.48
2023-02-23T19:19:26.813Z,9.52
2023-02-23T19:20:58.604Z,9.53
2023-02-23T19:22:30.502Z,9.44
2023-02-23T19:24:03.125Z,9.44
2023-02-23T19:25:34.896Z,9.42
2023-02-23T19:27:06.603Z,9.35
2023-02-23T19:28:38.412Z,9.34
2023-02-23T19:30:11.322Z,9.32
2023-02-23T19:31:43.200Z,9.29
2023-02-23T19:33:16.528Z,9.27
2023-02-23T19:34:48.395Z,9.19
2023-02-23T19:36:23.346Z,9.13
2023-02-23T19:37:55.013Z,9.13
2023-02-23T19:39:26.729Z,9.10
2023-02-23T19:40:58.627Z,9.04
2023-02-23T19:42:32.774Z,9.00
2023-02-23T19:44:04.727Z,9.00
2023-02-23T19:45:36.598Z,9.00
2023-02-23T19:47:09.554Z,9.09
2023-02-23T19:48:41.422Z,9.02
2023-02-23T19:50:16.753Z,8.99
2023-02-23T19:51:50.673Z,8.95
2023-02-23T19:53:22.545Z,9.02
2023-02-23T19:54:54.492Z,8.93
2023-02-23T19:56:27.972Z,8.94
2023-02-23T19:57:59.736Z,8.94
2023-02-23T19:59:31.396Z,8.94
2023-02-23T20:01:08.545Z,8.74
2023-02-23T20:02:44.178Z,8.71
2023-02-23T20:04:15.900Z,8.75
2023-02-23T20:05:47.721Z,8.75
2023-02-23T20:07:20.305Z,8.70
2023-02-23T20:08:52.675Z,8.72
2023-02-23T20:10:25.921Z,8.63
2023-02-23T20:11:57.633Z,8.69
2023-02-23T20:13:29.389Z,8.76
2023-02-23T20:15:01.663Z,8.59
2023-02-23T20:16:34.296Z,8.58
2023-02-23T20:18:07.377Z,8.49
2023-02-23T20:19:39.389Z,8.37
2023-02-23T20:21:17.222Z,8.38
2023-02-23T20:22:52.841Z,8.31
2023-02-23T20:24:24.670Z,8.28
2023-02-23T20:25:56.342Z,8.32
2023-02-23T20:27:30.049Z,8.41
2023-02-23T20:29:02.576Z,8.35
2023-02-23T20:30:34.783Z,8.33
2023-02-23T20:32:07.296Z,8.36
2023-02-23T20:33:39.194Z,8.32
2023-02-23T20:35:14.650Z,8.23
2023-02-23T20:36:46.743Z,8.18
2023-02-23T20:38:18.758Z,8.32
2023-02-23T20:39:50.481Z,8.30
2023-02-23T20:41:22.777Z,8.18
2023-02-23T20:42:55.286Z,8.13
2023-02-23T20:44:28.140Z,8.04
2023-02-23T20:46:01.043Z,8.07
2023-02-23T20:47:33.540Z,7.95
2023-02-23T20:49:05.283Z,7.88
2023-02-23T20:50:38.069Z,7.82
2023-02-23T20:52:09.853Z,7.85
2023-02-23T20:53:42.219Z,7.81
2023-02-23T20:55:19.231Z,7.72
2023-02-23T20:56:59.343Z,7.65
2023-02-23T20:58:31.306Z,7.73
2023-02-23T21:00:10.076Z,7.71
2023-02-23T21:01:43.776Z,7.70
2023-02-23T21:03:16.206Z,7.61
2023-02-23T21:04:48.114Z,7.59
2023-02-23T21:06:21.002Z,7.52
2023-02-23T21:07:57.247Z,7.54
2023-02-23T21:09:28.961Z,7.43
2023-02-23T21:11:05.241Z,7.49
2023-02-23T21:12:36.941Z,7.42
2023-02-23T21:14:08.699Z,7.43
2023-02-23T21:15:42.150Z,7.23
2023-02-23T21:17:14.344Z,7.17
2023-02-23T21:18:46.207Z,7.17
2023-02-23T21:20:20.878Z,7.11
2023-02-23T21:21:57.982Z,7.04
2023-02-23T21:23:29.684Z,7.09